Search for airport 
image banner adimage banner adimage banner ad
image banner ad

6Z6 - Nash Field Indianola

Located in Indianola, United States

ICAO - 6Z6, IATA -

Data provided by Airmate  

General information

Coordinates: N41°18'14" W93°34'3"
Elevation is 991 feet MSL.
Magnetic variation is 04° East
View others Airports in Iowa

Operational data

Special qualification required
Current time UTC:
Current local time:
Weather at : KDSM - Des Moines Intl ( 27 km )
METAR: KDSM 150854Z 03004KT 10SM BKN250 20/10 A3008 RMK AO2 SLP176 T02000100 51004
TAF: KDSM 150520Z 1506/1606 36003KT P6SM SKC
View NOTAMs / SUP AIP / TFR affecting this airport [VIEW]
Communications frequencies: [VIEW]

Runways:

RWY identifierQFULength (ft)Width (ft)SurfaceLDA (ft)
18180°2215100GRASS
36360°2215100GRASS

Airport contact information

Address: Indianola United States

Satellite view of 6Z6